Nf67 Femarnbaelt II — OU3102 — position and weather

sailwx.info

Track history (hours):
 
Tides and Currents Weather Stations Pressure Air Temp Water Temp Dewpoint Dewpoint Depression Visibility Wind Speed Wind Dir Waves Ship Positions

Nf67 Femarnbaelt II

Last reported at 2017-Jun-23 02:38 UTC. Time now 2017-Jun-23 07:01 UTC.
Position N 57°40' E 009°21'.

Length 15 m.

Type: Fishing. MMSI: 219012459.

Date/timePositionNaut miles runAvg speedWind from/ knotsBaromVisibWave heightAir tempDewpointWater temp
2017-Jun-23 02:38N 57°40' E 009°21'1 2.8
2017-Jun-23 02:27N 57°40' E 009°21'3 2.7
2017-Jun-23 01:22N 57°41' E 009°27'1 2.7
2017-Jun-23 00:57N 57°41' E 009°29'13 6.7
2017-Jun-22 23:00N 57°37' E 009°52'5 2.5
2017-Jun-22 21:00N 57°40' E 009°45'5 0.4
2017-Jun-22 08:42N 57°42' E 009°35'1 3.0
2017-Jun-22 08:29N 57°42' E 009°37'2 5.1
2017-Jun-22 08:00N 57°41' E 009°41'3 6.6
2017-Jun-22 07:29N 57°39' E 009°46'3 6.4
2017-Jun-22 06:59N 57°38' E 009°51'20 1.4
2017-Jun-21 16:59N 57°38' E 009°14'2 2.9
2017-Jun-21 16:27N 57°38' E 009°11'1 1.1
2017-Jun-21 15:59N 57°38' E 009°10'  
2017-Jun-18 21:54N 57°36' E 009°57'0 0.0
2017-Jun-18 21:30N 57°36' E 009°58'0 0.0
2017-Jun-18 21:00N 57°36' E 009°57'0 0.0
2017-Jun-18 20:27N 57°36' E 009°58'0 0.0
2017-Jun-18 20:00N 57°36' E 009°57'0 0.0
2017-Jun-18 04:57N 57°36' E 009°57'0 0.0
2017-Jun-18 04:30N 57°36' E 009°58'0 0.0
2017-Jun-18 04:00N 57°36' E 009°57'0 0.0
2017-Jun-18 03:30N 57°36' E 009°57'0 0.0
2017-Jun-18 03:00N 57°36' E 009°57'  
2017-Jun-15 08:02N 57°36' E 009°57'0 0.0
2017-Jun-15 07:59N 57°36' E 009°57'0 0.0
2017-Jun-15 07:29N 57°36' E 009°57'0 0.0
2017-Jun-15 06:59N 57°36' E 009°57'0 0.0
2017-Jun-15 06:23N 57°36' E 009°58'0 0.0
2017-Jun-14 23:11N 57°36' E 009°58'0 0.0
2017-Jun-14 22:56N 57°36' E 009°58'0 0.0
2017-Jun-14 17:31N 57°36' E 009°58'0 0.0
2017-Jun-14 17:28N 57°36' E 009°57'0 0.0
2017-Jun-14 16:58N 57°36' E 009°57'0 0.0
2017-Jun-14 16:28N 57°36' E 009°57'0 0.0
2017-Jun-14 15:58N 57°36' E 009°58'0 0.0
2017-Jun-14 15:25N 57°36' E 009°57'  
Track history (hours):
 
Tides and Currents Weather Stations Pressure Air Temp Water Temp Dewpoint Dewpoint Depression Visibility Wind Speed Wind Dir Waves Ship Positions

Nf67 Femarnbaelt II

Last reported at 2017-Jun-23 02:38 UTC. Time now 2017-Jun-23 07:01 UTC.
Position N 57°40' E 009°21'.

Length 15 m.

Type: Fishing. MMSI: 219012459.

Date/timePositionNaut miles runAvg speedWind from/ knotsBaromVisibWave heightAir tempDewpointWater temp
2017-Jun-23 02:38N 57°40' E 009°21'1 2.8
2017-Jun-23 02:27N 57°40' E 009°21'3 2.7
2017-Jun-23 01:22N 57°41' E 009°27'1 2.7
2017-Jun-23 00:57N 57°41' E 009°29'13 6.7
2017-Jun-22 23:00N 57°37' E 009°52'5 2.5
2017-Jun-22 21:00N 57°40' E 009°45'5 0.4
2017-Jun-22 08:42N 57°42' E 009°35'1 3.0
2017-Jun-22 08:29N 57°42' E 009°37'2 5.1
2017-Jun-22 08:00N 57°41' E 009°41'3 6.6
2017-Jun-22 07:29N 57°39' E 009°46'3 6.4
2017-Jun-22 06:59N 57°38' E 009°51'20 1.4
2017-Jun-21 16:59N 57°38' E 009°14'2 2.9
2017-Jun-21 16:27N 57°38' E 009°11'1 1.1
2017-Jun-21 15:59N 57°38' E 009°10'  
2017-Jun-18 21:54N 57°36' E 009°57'0 0.0
2017-Jun-18 21:30N 57°36' E 009°58'0 0.0
2017-Jun-18 21:00N 57°36' E 009°57'0 0.0
2017-Jun-18 20:27N 57°36' E 009°58'0 0.0
2017-Jun-18 20:00N 57°36' E 009°57'0 0.0
2017-Jun-18 04:57N 57°36' E 009°57'0 0.0
2017-Jun-18 04:30N 57°36' E 009°58'0 0.0
2017-Jun-18 04:00N 57°36' E 009°57'0 0.0
2017-Jun-18 03:30N 57°36' E 009°57'0 0.0
2017-Jun-18 03:00N 57°36' E 009°57'  
2017-Jun-15 08:02N 57°36' E 009°57'0 0.0
2017-Jun-15 07:59N 57°36' E 009°57'0 0.0
2017-Jun-15 07:29N 57°36' E 009°57'0 0.0
2017-Jun-15 06:59N 57°36' E 009°57'0 0.0
2017-Jun-15 06:23N 57°36' E 009°58'0 0.0
2017-Jun-14 23:11N 57°36' E 009°58'0 0.0
2017-Jun-14 22:56N 57°36' E 009°58'0 0.0
2017-Jun-14 17:31N 57°36' E 009°58'0 0.0
2017-Jun-14 17:28N 57°36' E 009°57'0 0.0
2017-Jun-14 16:58N 57°36' E 009°57'0 0.0
2017-Jun-14 16:28N 57°36' E 009°57'0 0.0
2017-Jun-14 15:58N 57°36' E 009°58'0 0.0
2017-Jun-14 15:25N 57°36' E 009°57'  

Dump ship's entire track history